sensor_id;sensor_type;location;lat;lon;timestamp;temperature;humidity
19561;DHT22;9927;47.792;10.616;2023-01-30T04:01:52;-2.40;99.90
19561;DHT22;9927;47.792;10.616;2023-01-30T04:04:19;-2.40;99.90
19561;DHT22;9927;47.792;10.616;2023-01-30T04:06:47;-2.40;99.90
19561;DHT22;9927;47.792;10.616;2023-01-30T04:09:14;-2.30;99.90
19561;DHT22;9927;47.792;10.616;2023-01-30T04:11:41;-2.30;99.90
19561;DHT22;9927;47.792;10.616;2023-01-30T04:14:08;-2.20;99.90
19561;DHT22;9927;47.792;10.616;2023-01-30T04:16:36;-2.20;99.90
19561;DHT22;9927;47.792;10.616;2023-01-30T04:19:03;-2.10;99.90
19561;DHT22;9927;47.792;10.616;2023-01-30T04:21:30;-2.10;99.90
19561;DHT22;9927;47.792;10.616;2023-01-30T04:23:57;-2.10;99.90
19561;DHT22;9927;47.792;10.616;2023-01-30T04:26:25;-2.00;99.90
19561;DHT22;9927;47.792;10.616;2023-01-30T04:28:52;-2.00;99.90
19561;DHT22;9927;47.792;10.616;2023-01-30T04:31:19;-1.90;99.90
19561;DHT22;9927;47.792;10.616;2023-01-30T04:33:46;-1.80;99.90
19561;DHT22;9927;47.792;10.616;2023-01-30T04:36:14;-1.80;99.90
19561;DHT22;9927;47.792;10.616;2023-01-30T04:38:41;-1.80;99.90
19561;DHT22;9927;47.792;10.616;2023-01-30T04:41:08;-1.80;99.90
19561;DHT22;9927;47.792;10.616;2023-01-30T04:43:35;-1.70;99.90
19561;DHT22;9927;47.792;10.616;2023-01-30T04:46:03;-1.70;99.90
19561;DHT22;9927;47.792;10.616;2023-01-30T04:48:30;-1.70;99.90
19561;DHT22;9927;47.792;10.616;2023-01-30T04:50:58;-1.70;99.90
19561;DHT22;9927;47.792;10.616;2023-01-30T04:53:26;-1.70;99.90
19561;DHT22;9927;47.792;10.616;2023-01-30T04:55:53;-1.80;99.90
19561;DHT22;9927;47.792;10.616;2023-01-30T04:58:20;-1.80;99.90
19561;DHT22;9927;47.792;10.616;2023-01-30T05:00:48;-1.90;99.90
19561;DHT22;9927;47.792;10.616;2023-01-30T05:03:15;-1.90;99.90
19561;DHT22;9927;47.792;10.616;2023-01-30T05:05:45;-1.90;99.90
19561;DHT22;9927;47.792;10.616;2023-01-30T05:08:14;-1.90;99.90
19561;DHT22;9927;47.792;10.616;2023-01-30T05:10:41;-1.80;99.90
19561;DHT22;9927;47.792;10.616;2023-01-30T05:13:08;-1.70;99.90
19561;DHT22;9927;47.792;10.616;2023-01-30T05:15:38;-1.70;99.90
19561;DHT22;9927;47.792;10.616;2023-01-30T05:18:06;-1.60;99.90
19561;DHT22;9927;47.792;10.616;2023-01-30T05:20:33;-1.60;99.90
19561;DHT22;9927;47.792;10.616;2023-01-30T05:23:00;-1.60;99.90
19561;DHT22;9927;47.792;10.616;2023-01-30T05:25:28;-1.60;99.90
19561;DHT22;9927;47.792;10.616;2023-01-30T05:27:55;-1.60;99.90
19561;DHT22;9927;47.792;10.616;2023-01-30T05:30:23;-1.60;99.90
19561;DHT22;9927;47.792;10.616;2023-01-30T05:32:50;-1.60;99.90
19561;DHT22;9927;47.792;10.616;2023-01-30T05:35:17;-1.60;99.90
19561;DHT22;9927;47.792;10.616;2023-01-30T05:37:49;-1.70;99.90
19561;DHT22;9927;47.792;10.616;2023-01-30T05:40:17;-1.60;99.90
19561;DHT22;9927;47.792;10.616;2023-01-30T05:42:44;-1.60;99.90
19561;DHT22;9927;47.792;10.616;2023-01-30T05:45:11;-1.60;99.90
19561;DHT22;9927;47.792;10.616;2023-01-30T05:47:39;-1.50;99.90
19561;DHT22;9927;47.792;10.616;2023-01-30T05:50:06;-1.50;99.90
19561;DHT22;9927;47.792;10.616;2023-01-30T05:52:34;-1.40;99.90
19561;DHT22;9927;47.792;10.616;2023-01-30T05:55:01;-1.40;99.90
19561;DHT22;9927;47.792;10.616;2023-01-30T05:57:28;-1.40;99.90
19561;DHT22;9927;47.792;10.616;2023-01-30T05:59:55;-1.40;99.90
19561;DHT22;9927;47.792;10.616;2023-01-30T06:02:22;-1.40;99.90
19561;DHT22;9927;47.792;10.616;2023-01-30T06:04:50;-1.30;99.90
19561;DHT22;9927;47.792;10.616;2023-01-30T06:07:17;-1.30;99.90
19561;DHT22;9927;47.792;10.616;2023-01-30T06:09:44;-1.30;99.90
19561;DHT22;9927;47.792;10.616;2023-01-30T06:12:11;-1.40;99.90
19561;DHT22;9927;47.792;10.616;2023-01-30T06:14:39;-1.30;99.90
19561;DHT22;9927;47.792;10.616;2023-01-30T06:17:06;-1.30;99.90
19561;DHT22;9927;47.792;10.616;2023-01-30T06:19:33;-1.20;99.90
19561;DHT22;9927;47.792;10.616;2023-01-30T06:22:00;-1.10;99.90
19561;DHT22;9927;47.792;10.616;2023-01-30T06:24:29;-1.10;99.90
19561;DHT22;9927;47.792;10.616;2023-01-30T06:26:57;-1.00;99.90
19561;DHT22;9927;47.792;10.616;2023-01-30T06:29:25;-0.90;99.90
19561;DHT22;9927;47.792;10.616;2023-01-30T06:31:52;-0.90;99.90
19561;DHT22;9927;47.792;10.616;2023-01-30T06:34:19;-0.90;99.90
19561;DHT22;9927;47.792;10.616;2023-01-30T06:36:46;-0.90;99.90
19561;DHT22;9927;47.792;10.616;2023-01-30T06:39:13;-0.80;99.90
19561;DHT22;9927;47.792;10.616;2023-01-30T06:41:41;-0.80;99.90
19561;DHT22;9927;47.792;10.616;2023-01-30T06:44:08;-0.70;99.90
19561;DHT22;9927;47.792;10.616;2023-01-30T06:46:35;-0.70;99.90
19561;DHT22;9927;47.792;10.616;2023-01-30T06:49:03;-0.70;99.90
19561;DHT22;9927;47.792;10.616;2023-01-30T06:51:30;-0.70;99.90
19561;DHT22;9927;47.792;10.616;2023-01-30T06:53:58;-0.70;99.90
19561;DHT22;9927;47.792;10.616;2023-01-30T06:56:25;-0.70;99.90
19561;DHT22;9927;47.792;10.616;2023-01-30T06:58:52;-0.70;99.90
19561;DHT22;9927;47.792;10.616;2023-01-30T07:01:20;-0.80;99.90
19561;DHT22;9927;47.792;10.616;2023-01-30T07:03:47;-0.80;99.90
19561;DHT22;9927;47.792;10.616;2023-01-30T07:06:15;-0.80;99.90
19561;DHT22;9927;47.792;10.616;2023-01-30T07:08:42;-0.90;99.90
19561;DHT22;9927;47.792;10.616;2023-01-30T07:11:10;-0.90;99.90
19561;DHT22;9927;47.792;10.616;2023-01-30T07:13:37;-0.80;99.90
19561;DHT22;9927;47.792;10.616;2023-01-30T07:16:05;-0.80;99.90
19561;DHT22;9927;47.792;10.616;2023-01-30T07:18:32;-0.80;99.90
19561;DHT22;9927;47.792;10.616;2023-01-30T07:20:59;-0.90;99.90
19561;DHT22;9927;47.792;10.616;2023-01-30T07:23:26;-0.90;99.90
19561;DHT22;9927;47.792;10.616;2023-01-30T07:25:54;-1.00;99.90
19561;DHT22;9927;47.792;10.616;2023-01-30T07:28:21;-1.00;99.90
19561;DHT22;9927;47.792;10.616;2023-01-30T07:30:48;-1.10;99.90
19561;DHT22;9927;47.792;10.616;2023-01-30T07:33:19;-1.10;99.90
19561;DHT22;9927;47.792;10.616;2023-01-30T07:35:46;-1.20;99.90
19561;DHT22;9927;47.792;10.616;2023-01-30T07:38:14;-1.20;99.90
19561;DHT22;9927;47.792;10.616;2023-01-30T07:40:41;-1.10;99.90
19561;DHT22;9927;47.792;10.616;2023-01-30T07:43:11;-1.10;99.90
19561;DHT22;9927;47.792;10.616;2023-01-30T07:45:56;-1.10;99.90
19561;DHT22;9927;47.792;10.616;2023-01-30T07:48:24;-1.10;99.90
19561;DHT22;9927;47.792;10.616;2023-01-30T07:50:54;-1.10;99.90
19561;DHT22;9927;47.792;10.616;2023-01-30T07:53:22;-1.10;99.90
19561;DHT22;9927;47.792;10.616;2023-01-30T07:55:50;-1.20;99.90
19561;DHT22;9927;47.792;10.616;2023-01-30T07:58:17;-1.10;99.90
19561;DHT22;9927;47.792;10.616;2023-01-30T08:00:44;-1.30;99.90
19561;DHT22;9927;47.792;10.616;2023-01-30T08:03:13;-1.30;99.90
19561;DHT22;9927;47.792;10.616;2023-01-30T08:05:41;-1.30;99.90
19561;DHT22;9927;47.792;10.616;2023-01-30T08:08:08;-1.20;99.90
19561;DHT22;9927;47.792;10.616;2023-01-30T08:10:35;-1.10;99.90
19561;DHT22;9927;47.792;10.616;2023-01-30T08:13:02;-1.10;99.90
19561;DHT22;9927;47.792;10.616;2023-01-30T08:15:30;-1.00;99.90
19561;DHT22;9927;47.792;10.616;2023-01-30T08:17:59;-0.90;99.90
19561;DHT22;9927;47.792;10.616;2023-01-30T08:20:27;-0.80;99.90
19561;DHT22;9927;47.792;10.616;2023-01-30T08:22:54;-0.80;99.90
19561;DHT22;9927;47.792;10.616;2023-01-30T08:25:22;-0.70;99.90
19561;DHT22;9927;47.792;10.616;2023-01-30T08:27:50;-0.60;99.90
19561;DHT22;9927;47.792;10.616;2023-01-30T08:30:19;-0.40;99.90
19561;DHT22;9927;47.792;10.616;2023-01-30T08:32:47;-0.40;99.90
19561;DHT22;9927;47.792;10.616;2023-01-30T08:35:14;-0.30;99.90
19561;DHT22;9927;47.792;10.616;2023-01-30T08:37:42;-0.50;99.90
19561;DHT22;9927;47.792;10.616;2023-01-30T08:40:10;-0.60;99.90
19561;DHT22;9927;47.792;10.616;2023-01-30T08:42:37;-0.50;99.90
19561;DHT22;9927;47.792;10.616;2023-01-30T08:45:05;-0.40;99.90
19561;DHT22;9927;47.792;10.616;2023-01-30T08:47:33;-0.20;99.90
19561;DHT22;9927;47.792;10.616;2023-01-30T08:50:02;-0.30;99.90
19561;DHT22;9927;47.792;10.616;2023-01-30T08:52:31;-0.10;99.90
19561;DHT22;9927;47.792;10.616;2023-01-30T08:54:59;-0.10;99.90
19561;DHT22;9927;47.792;10.616;2023-01-30T08:57:26;-0.10;99.90
19561;DHT22;9927;47.792;10.616;2023-01-30T08:59:53;-0.10;99.90
19561;DHT22;9927;47.792;10.616;2023-01-30T09:02:20;0.00;99.90
19561;DHT22;9927;47.792;10.616;2023-01-30T09:04:48;-0.10;99.90
19561;DHT22;9927;47.792;10.616;2023-01-30T09:07:15;0.00;99.90
19561;DHT22;9927;47.792;10.616;2023-01-30T09:09:42;-0.10;99.90
19561;DHT22;9927;47.792;10.616;2023-01-30T09:12:09;-0.10;99.90
19561;DHT22;9927;47.792;10.616;2023-01-30T09:14:37;-0.10;99.90
19561;DHT22;9927;47.792;10.616;2023-01-30T09:19:32;0.20;99.90
19561;DHT22;9927;47.792;10.616;2023-01-30T09:22:01;0.40;99.90
19561;DHT22;9927;47.792;10.616;2023-01-30T09:24:29;0.60;99.90
19561;DHT22;9927;47.792;10.616;2023-01-30T09:26:56;0.60;99.90
19561;DHT22;9927;47.792;10.616;2023-01-30T09:29:25;0.70;99.90
19561;DHT22;9927;47.792;10.616;2023-01-30T09:31:54;0.60;99.90
19561;DHT22;9927;47.792;10.616;2023-01-30T09:34:25;0.50;99.90
19561;DHT22;9927;47.792;10.616;2023-01-30T09:37:00;0.40;99.90
19561;DHT22;9927;47.792;10.616;2023-01-30T09:39:30;0.10;99.90
19561;DHT22;9927;47.792;10.616;2023-01-30T09:44:53;0.30;99.90
19561;DHT22;9927;47.792;10.616;2023-01-30T09:47:33;0.50;99.90
19561;DHT22;9927;47.792;10.616;2023-01-30T09:56:16;0.50;99.90
19561;DHT22;9927;47.792;10.616;2023-01-30T09:58:48;0.50;99.90
19561;DHT22;9927;47.792;10.616;2023-01-30T10:01:57;0.70;99.90
19561;DHT22;9927;47.792;10.616;2023-01-30T10:07:13;1.00;99.90
19561;DHT22;9927;47.792;10.616;2023-01-30T10:12:57;1.20;99.90
19561;DHT22;9927;47.792;10.616;2023-01-30T10:16:00;1.20;99.90
19561;DHT22;9927;47.792;10.616;2023-01-30T10:18:52;1.20;99.90
19561;DHT22;9927;47.792;10.616;2023-01-30T10:21:35;1.10;99.90
19561;DHT22;9927;47.792;10.616;2023-01-30T10:24:45;1.30;99.90
19561;DHT22;9927;47.792;10.616;2023-01-30T10:27:17;1.30;99.90
19561;DHT22;9927;47.792;10.616;2023-01-30T10:29:52;1.40;99.90
19561;DHT22;9927;47.792;10.616;2023-01-30T10:32:40;1.40;99.90
19561;DHT22;9927;47.792;10.616;2023-01-30T10:35:27;1.60;99.90
19561;DHT22;9927;47.792;10.616;2023-01-30T10:40:43;2.30;99.90
19561;DHT22;9927;47.792;10.616;2023-01-30T10:43:47;2.20;99.90
19561;DHT22;9927;47.792;10.616;2023-01-30T10:46:29;2.20;99.90
19561;DHT22;9927;47.792;10.616;2023-01-30T10:49:26;2.00;99.90
19561;DHT22;9927;47.792;10.616;2023-01-30T10:55:01;1.90;99.90
19561;DHT22;9927;47.792;10.616;2023-01-30T10:57:56;2.00;99.90
19561;DHT22;9927;47.792;10.616;2023-01-30T11:00:34;2.00;99.90
19561;DHT22;9927;47.792;10.616;2023-01-30T11:05:48;2.10;99.90
19561;DHT22;9927;47.792;10.616;2023-01-30T11:08:27;2.20;99.90
19561;DHT22;9927;47.792;10.616;2023-01-30T11:10:55;2.20;99.90
19561;DHT22;9927;47.792;10.616;2023-01-30T11:13:31;2.20;99.90
19561;DHT22;9927;47.792;10.616;2023-01-30T11:16:07;2.30;99.90
19561;DHT22;9927;47.792;10.616;2023-01-30T11:18:48;2.40;99.90
19561;DHT22;9927;47.792;10.616;2023-01-30T11:21:36;2.30;99.90
19561;DHT22;9927;47.792;10.616;2023-01-30T11:24:22;2.50;99.90
19561;DHT22;9927;47.792;10.616;2023-01-30T11:26:50;2.60;99.90
19561;DHT22;9927;47.792;10.616;2023-01-30T11:29:26;2.60;99.90
19561;DHT22;9927;47.792;10.616;2023-01-30T11:31:54;2.70;99.90
19561;DHT22;9927;47.792;10.616;2023-01-30T11:34:23;2.90;99.90
19561;DHT22;9927;47.792;10.616;2023-01-30T11:36:51;3.20;99.90
19561;DHT22;9927;47.792;10.616;2023-01-30T11:39:21;3.40;99.90
19561;DHT22;9927;47.792;10.616;2023-01-30T11:44:25;4.10;99.90
19561;DHT22;9927;47.792;10.616;2023-01-30T11:46:52;4.30;99.90
19561;DHT22;9927;47.792;10.616;2023-01-30T11:49:20;4.40;99.90
19561;DHT22;9927;47.792;10.616;2023-01-30T11:52:09;5.20;99.90
19561;DHT22;9927;47.792;10.616;2023-01-30T11:54:39;4.80;99.90
19561;DHT22;9927;47.792;10.616;2023-01-30T11:57:13;4.60;99.90
19561;DHT22;9927;47.792;10.616;2023-01-30T11:59:48;4.60;99.90
19561;DHT22;9927;47.792;10.616;2023-01-30T12:02:34;4.50;99.90
19561;DHT22;9927;47.792;10.616;2023-01-30T12:05:25;4.20;99.90
19561;DHT22;9927;47.792;10.616;2023-01-30T12:08:12;4.30;99.90
19561;DHT22;9927;47.792;10.616;2023-01-30T12:10:42;4.50;99.90
19561;DHT22;9927;47.792;10.616;2023-01-30T12:13:25;4.50;99.90
19561;DHT22;9927;47.792;10.616;2023-01-30T12:24:51;4.80;99.90
19561;DHT22;9927;47.792;10.616;2023-01-30T12:30:48;4.50;99.90
19561;DHT22;9927;47.792;10.616;2023-01-30T12:33:17;4.60;99.90
19561;DHT22;9927;47.792;10.616;2023-01-30T12:35:50;4.50;99.90
19561;DHT22;9927;47.792;10.616;2023-01-30T12:41:26;4.80;99.90
19561;DHT22;9927;47.792;10.616;2023-01-30T12:46:33;4.20;99.90
19561;DHT22;9927;47.792;10.616;2023-01-30T12:55:21;4.10;99.90
19561;DHT22;9927;47.792;10.616;2023-01-30T12:57:59;4.00;99.90
19561;DHT22;9927;47.792;10.616;2023-01-30T13:06:30;3.70;99.90
19561;DHT22;9927;47.792;10.616;2023-01-30T13:18:06;3.70;99.90
19561;DHT22;9927;47.792;10.616;2023-01-30T13:26:06;3.70;99.90
19561;DHT22;9927;47.792;10.616;2023-01-30T13:28:37;3.80;99.90
19561;DHT22;9927;47.792;10.616;2023-01-30T13:31:10;3.80;99.90
19561;DHT22;9927;47.792;10.616;2023-01-30T13:33:41;3.80;99.90
19561;DHT22;9927;47.792;10.616;2023-01-30T13:36:17;3.90;99.90
19561;DHT22;9927;47.792;10.616;2023-01-30T13:39:02;4.00;99.90
19561;DHT22;9927;47.792;10.616;2023-01-30T13:41:34;3.90;99.90
19561;DHT22;9927;47.792;10.616;2023-01-30T13:44:30;3.90;99.90
19561;DHT22;9927;47.792;10.616;2023-01-30T13:47:16;4.10;99.90
19561;DHT22;9927;47.792;10.616;2023-01-30T13:52:44;4.00;99.90
19561;DHT22;9927;47.792;10.616;2023-01-30T13:57:54;4.00;99.90
19561;DHT22;9927;47.792;10.616;2023-01-30T14:10:55;4.10;99.90
19561;DHT22;9927;47.792;10.616;2023-01-30T14:13:25;4.00;99.90
19561;DHT22;9927;47.792;10.616;2023-01-30T14:16:02;4.10;99.90
19561;DHT22;9927;47.792;10.616;2023-01-30T14:18:32;4.10;99.90
19561;DHT22;9927;47.792;10.616;2023-01-30T14:21:22;4.10;99.90
19561;DHT22;9927;47.792;10.616;2023-01-30T14:24:00;4.10;99.90
19561;DHT22;9927;47.792;10.616;2023-01-30T14:40:27;3.60;99.90
19561;DHT22;9927;47.792;10.616;2023-01-30T14:45:49;3.30;99.90
19561;DHT22;9927;47.792;10.616;2023-01-30T15:07:14;2.90;99.90
19561;DHT22;9927;47.792;10.616;2023-01-30T15:09:51;2.90;99.90
19561;DHT22;9927;47.792;10.616;2023-01-30T15:12:44;3.00;99.90
19561;DHT22;9927;47.792;10.616;2023-01-30T15:32:00;2.30;99.90
19561;DHT22;9927;47.792;10.616;2023-01-30T15:34:29;2.20;99.90
19561;DHT22;9927;47.792;10.616;2023-01-30T15:36:57;2.20;99.90
19561;DHT22;9927;47.792;10.616;2023-01-30T15:39:26;2.30;99.90
19561;DHT22;9927;47.792;10.616;2023-01-30T15:42:03;2.30;99.90
19561;DHT22;9927;47.792;10.616;2023-01-30T15:44:55;2.40;99.90
19561;DHT22;9927;47.792;10.616;2023-01-30T15:50:09;2.40;99.90
19561;DHT22;9927;47.792;10.616;2023-01-30T15:52:38;2.30;99.90
19561;DHT22;9927;47.792;10.616;2023-01-30T15:55:12;2.30;99.90
19561;DHT22;9927;47.792;10.616;2023-01-30T15:57:41;2.20;99.90
19561;DHT22;9927;47.792;10.616;2023-01-30T16:00:26;2.30;99.90
19561;DHT22;9927;47.792;10.616;2023-01-30T16:02:55;2.40;99.90
19561;DHT22;9927;47.792;10.616;2023-01-30T16:05:24;2.40;99.90
19561;DHT22;9927;47.792;10.616;2023-01-30T16:07:54;2.20;99.90
19561;DHT22;9927;47.792;10.616;2023-01-30T16:10:27;2.30;99.90
19561;DHT22;9927;47.792;10.616;2023-01-30T16:12:56;2.40;99.90
19561;DHT22;9927;47.792;10.616;2023-01-30T16:18:29;2.30;99.90
19561;DHT22;9927;47.792;10.616;2023-01-30T16:21:07;2.40;99.90
19561;DHT22;9927;47.792;10.616;2023-01-30T16:24:01;2.50;99.90
19561;DHT22;9927;47.792;10.616;2023-01-30T16:26:31;2.30;99.90
19561;DHT22;9927;47.792;10.616;2023-01-30T16:29:02;2.40;99.90
19561;DHT22;9927;47.792;10.616;2023-01-30T16:31:32;2.10;99.90
19561;DHT22;9927;47.792;10.616;2023-01-30T16:34:00;2.20;99.90
19561;DHT22;9927;47.792;10.616;2023-01-30T16:36:30;2.30;99.90
19561;DHT22;9927;47.792;10.616;2023-01-30T16:38:59;2.40;99.90
19561;DHT22;9927;47.792;10.616;2023-01-30T16:41:27;2.40;99.90
19561;DHT22;9927;47.792;10.616;2023-01-30T16:49:40;2.40;99.90
19561;DHT22;9927;47.792;10.616;2023-01-30T16:52:17;2.40;99.90
19561;DHT22;9927;47.792;10.616;2023-01-30T16:54:56;2.30;99.90
19561;DHT22;9927;47.792;10.616;2023-01-30T16:57:28;2.30;99.90
19561;DHT22;9927;47.792;10.616;2023-01-30T17:00:04;2.30;99.90
19561;DHT22;9927;47.792;10.616;2023-01-30T17:02:36;2.40;99.90
19561;DHT22;9927;47.792;10.616;2023-01-30T17:05:21;2.50;99.90
19561;DHT22;9927;47.792;10.616;2023-01-30T17:07:49;2.50;99.90
19561;DHT22;9927;47.792;10.616;2023-01-30T17:13:29;2.30;99.90
19561;DHT22;9927;47.792;10.616;2023-01-30T17:16:32;2.30;99.90
19561;DHT22;9927;47.792;10.616;2023-01-30T17:19:00;2.40;99.90
19561;DHT22;9927;47.792;10.616;2023-01-30T17:21:41;2.40;99.90
19561;DHT22;9927;47.792;10.616;2023-01-30T17:24:16;2.40;99.90
19561;DHT22;9927;47.792;10.616;2023-01-30T17:26:46;2.40;99.90
19561;DHT22;9927;47.792;10.616;2023-01-30T17:29:16;2.40;99.90
19561;DHT22;9927;47.792;10.616;2023-01-30T17:32:09;2.40;99.90
19561;DHT22;9927;47.792;10.616;2023-01-30T17:34:37;2.40;99.90
19561;DHT22;9927;47.792;10.616;2023-01-30T17:37:33;2.40;99.90
19561;DHT22;9927;47.792;10.616;2023-01-30T17:40:00;2.30;99.90
19561;DHT22;9927;47.792;10.616;2023-01-30T17:42:28;2.30;99.90
19561;DHT22;9927;47.792;10.616;2023-01-30T17:44:55;2.30;99.90
19561;DHT22;9927;47.792;10.616;2023-01-30T17:47:22;2.30;99.90
19561;DHT22;9927;47.792;10.616;2023-01-30T17:49:49;2.30;99.90
19561;DHT22;9927;47.792;10.616;2023-01-30T17:52:16;2.30;99.90
19561;DHT22;9927;47.792;10.616;2023-01-30T17:54:45;2.40;99.90
19561;DHT22;9927;47.792;10.616;2023-01-30T17:57:12;2.40;99.90
19561;DHT22;9927;47.792;10.616;2023-01-30T17:59:41;2.40;99.90
19561;DHT22;9927;47.792;10.616;2023-01-30T18:02:09;2.30;99.90
19561;DHT22;9927;47.792;10.616;2023-01-30T18:04:36;2.10;99.90
19561;DHT22;9927;47.792;10.616;2023-01-30T18:07:06;2.10;99.90
19561;DHT22;9927;47.792;10.616;2023-01-30T18:09:37;2.20;99.90
19561;DHT22;9927;47.792;10.616;2023-01-30T18:12:05;2.30;99.90
19561;DHT22;9927;47.792;10.616;2023-01-30T18:14:32;2.30;99.90
19561;DHT22;9927;47.792;10.616;2023-01-30T18:17:00;2.20;99.90
19561;DHT22;9927;47.792;10.616;2023-01-30T18:19:27;2.20;99.90
19561;DHT22;9927;47.792;10.616;2023-01-30T18:21:55;2.20;99.90
19561;DHT22;9927;47.792;10.616;2023-01-30T18:24:24;2.20;99.90
19561;DHT22;9927;47.792;10.616;2023-01-30T18:26:52;2.30;99.90
19561;DHT22;9927;47.792;10.616;2023-01-30T18:29:19;2.20;99.90
19561;DHT22;9927;47.792;10.616;2023-01-30T18:31:46;2.20;99.90
19561;DHT22;9927;47.792;10.616;2023-01-30T18:34:14;2.30;99.90
19561;DHT22;9927;47.792;10.616;2023-01-30T18:36:41;2.40;99.90
19561;DHT22;9927;47.792;10.616;2023-01-30T18:39:10;2.30;99.90
19561;DHT22;9927;47.792;10.616;2023-01-30T18:41:38;2.30;99.90
19561;DHT22;9927;47.792;10.616;2023-01-30T18:44:05;2.40;99.90
19561;DHT22;9927;47.792;10.616;2023-01-30T18:46:33;2.40;99.90
19561;DHT22;9927;47.792;10.616;2023-01-30T18:49:00;2.50;99.90
19561;DHT22;9927;47.792;10.616;2023-01-30T18:51:29;2.50;99.90
19561;DHT22;9927;47.792;10.616;2023-01-30T18:54:00;2.40;99.90
19561;DHT22;9927;47.792;10.616;2023-01-30T18:56:30;2.30;99.90
19561;DHT22;9927;47.792;10.616;2023-01-30T18:59:01;2.30;99.90
19561;DHT22;9927;47.792;10.616;2023-01-30T19:01:35;2.40;99.90
19561;DHT22;9927;47.792;10.616;2023-01-30T19:04:06;2.40;99.90
19561;DHT22;9927;47.792;10.616;2023-01-30T19:06:36;2.30;99.90
19561;DHT22;9927;47.792;10.616;2023-01-30T19:09:04;2.30;99.90
19561;DHT22;9927;47.792;10.616;2023-01-30T19:11:32;2.10;99.90
19561;DHT22;9927;47.792;10.616;2023-01-30T19:14:18;2.10;99.90
19561;DHT22;9927;47.792;10.616;2023-01-30T19:16:45;2.20;99.90
19561;DHT22;9927;47.792;10.616;2023-01-30T19:19:12;2.20;99.90
19561;DHT22;9927;47.792;10.616;2023-01-30T19:21:40;2.10;99.90
19561;DHT22;9927;47.792;10.616;2023-01-30T19:24:12;2.10;99.90
19561;DHT22;9927;47.792;10.616;2023-01-30T19:26:39;2.10;99.90
19561;DHT22;9927;47.792;10.616;2023-01-30T19:29:07;2.10;99.90
19561;DHT22;9927;47.792;10.616;2023-01-30T19:31:34;2.00;99.90
19561;DHT22;9927;47.792;10.616;2023-01-30T19:34:02;2.00;99.90
19561;DHT22;9927;47.792;10.616;2023-01-30T19:36:34;2.00;99.90
19561;DHT22;9927;47.792;10.616;2023-01-30T19:39:03;2.00;99.90
19561;DHT22;9927;47.792;10.616;2023-01-30T19:41:33;1.80;99.90
19561;DHT22;9927;47.792;10.616;2023-01-30T19:44:04;1.90;99.90
19561;DHT22;9927;47.792;10.616;2023-01-30T19:46:31;2.00;99.90
19561;DHT22;9927;47.792;10.616;2023-01-30T19:48:59;2.10;99.90
19561;DHT22;9927;47.792;10.616;2023-01-30T19:51:29;2.10;99.90
19561;DHT22;9927;47.792;10.616;2023-01-30T19:53:58;2.10;99.90
19561;DHT22;9927;47.792;10.616;2023-01-30T19:56:27;2.10;99.90
19561;DHT22;9927;47.792;10.616;2023-01-30T19:58:56;2.10;99.90
19561;DHT22;9927;47.792;10.616;2023-01-30T20:01:26;2.30;99.90
19561;DHT22;9927;47.792;10.616;2023-01-30T20:03:56;2.30;99.90
19561;DHT22;9927;47.792;10.616;2023-01-30T20:06:26;2.30;99.90
19561;DHT22;9927;47.792;10.616;2023-01-30T20:08:56;2.30;99.90
19561;DHT22;9927;47.792;10.616;2023-01-30T20:11:26;2.30;99.90
19561;DHT22;9927;47.792;10.616;2023-01-30T20:13:53;2.40;99.90
19561;DHT22;9927;47.792;10.616;2023-01-30T20:16:23;2.40;99.90
19561;DHT22;9927;47.792;10.616;2023-01-30T20:18:59;2.40;99.90
19561;DHT22;9927;47.792;10.616;2023-01-30T20:21:29;2.50;99.90
19561;DHT22;9927;47.792;10.616;2023-01-30T20:23:56;2.50;99.90
19561;DHT22;9927;47.792;10.616;2023-01-30T20:26:27;2.50;99.90
19561;DHT22;9927;47.792;10.616;2023-01-30T20:28:55;2.50;99.90
19561;DHT22;9927;47.792;10.616;2023-01-30T20:31:25;2.30;99.90
19561;DHT22;9927;47.792;10.616;2023-01-30T20:33:53;2.40;99.90
19561;DHT22;9927;47.792;10.616;2023-01-30T20:36:25;2.30;99.90
19561;DHT22;9927;47.792;10.616;2023-01-30T20:38:54;2.40;99.90
19561;DHT22;9927;47.792;10.616;2023-01-30T20:41:23;2.30;99.90
19561;DHT22;9927;47.792;10.616;2023-01-30T20:43:53;2.20;99.90
19561;DHT22;9927;47.792;10.616;2023-01-30T20:46:24;2.20;99.90
19561;DHT22;9927;47.792;10.616;2023-01-30T20:48:54;2.20;99.90
19561;DHT22;9927;47.792;10.616;2023-01-30T20:51:24;2.10;99.90
19561;DHT22;9927;47.792;10.616;2023-01-30T20:54:03;2.10;99.90
19561;DHT22;9927;47.792;10.616;2023-01-30T20:56:39;2.10;99.90
19561;DHT22;9927;47.792;10.616;2023-01-30T20:59:10;2.20;99.90
19561;DHT22;9927;47.792;10.616;2023-01-30T21:01:38;2.20;99.90
19561;DHT22;9927;47.792;10.616;2023-01-30T21:04:08;2.30;99.90
19561;DHT22;9927;47.792;10.616;2023-01-30T21:06:37;2.30;99.90
19561;DHT22;9927;47.792;10.616;2023-01-30T21:09:13;2.40;99.90
19561;DHT22;9927;47.792;10.616;2023-01-30T21:11:41;2.30;99.90
19561;DHT22;9927;47.792;10.616;2023-01-30T21:14:09;2.30;99.90
19561;DHT22;9927;47.792;10.616;2023-01-30T21:16:37;2.30;99.90
19561;DHT22;9927;47.792;10.616;2023-01-30T21:19:06;2.30;99.90
19561;DHT22;9927;47.792;10.616;2023-01-30T21:21:40;2.40;99.90
19561;DHT22;9927;47.792;10.616;2023-01-30T21:24:11;2.40;99.90
19561;DHT22;9927;47.792;10.616;2023-01-30T21:26:41;2.40;99.90
19561;DHT22;9927;47.792;10.616;2023-01-30T21:29:14;2.30;99.90
19561;DHT22;9927;47.792;10.616;2023-01-30T21:31:42;2.40;99.90
19561;DHT22;9927;47.792;10.616;2023-01-30T21:34:11;2.30;99.90
19561;DHT22;9927;47.792;10.616;2023-01-30T21:36:38;2.30;99.90
19561;DHT22;9927;47.792;10.616;2023-01-30T21:39:07;2.30;99.90
19561;DHT22;9927;47.792;10.616;2023-01-30T21:41:54;2.30;99.90
19561;DHT22;9927;47.792;10.616;2023-01-30T21:44:32;2.30;99.90
19561;DHT22;9927;47.792;10.616;2023-01-30T21:47:00;2.30;99.90
19561;DHT22;9927;47.792;10.616;2023-01-30T21:49:27;2.30;99.90
19561;DHT22;9927;47.792;10.616;2023-01-30T21:51:55;2.30;99.90
19561;DHT22;9927;47.792;10.616;2023-01-30T21:54:22;2.30;99.90
19561;DHT22;9927;47.792;10.616;2023-01-30T21:56:50;2.20;99.90
19561;DHT22;9927;47.792;10.616;2023-01-30T21:59:17;2.10;99.90
